createdAt,value
2018-11-11T00:04:19.910Z,12.12
2018-11-11T00:09:04.082Z,12.05
2018-11-11T00:13:48.215Z,12.13
2018-11-11T00:18:31.453Z,11.96
2018-11-11T00:23:15.875Z,11.79
2018-11-11T00:27:58.718Z,12.01
2018-11-11T00:32:41.776Z,11.83
2018-11-11T00:37:24.638Z,12.03
2018-11-11T00:42:07.571Z,11.95
2018-11-11T00:46:50.430Z,12.03
2018-11-11T00:51:33.318Z,11.71
2018-11-11T00:56:16.489Z,11.79
2018-11-11T01:00:59.591Z,11.90
2018-11-11T01:05:42.454Z,11.93
2018-11-11T01:10:25.366Z,11.84
2018-11-11T01:15:10.196Z,11.85
2018-11-11T01:19:53.026Z,11.76
2018-11-11T01:24:35.926Z,12.12
2018-11-11T01:29:18.896Z,11.98
2018-11-11T01:34:01.880Z,12.08
2018-11-11T01:38:44.745Z,12.19
2018-11-11T01:43:28.902Z,12.12
2018-11-11T01:48:11.776Z,12.04
2018-11-11T01:52:55.641Z,12.09
2018-11-11T01:57:38.959Z,12.14
2018-11-11T02:02:21.918Z,12.20
2018-11-11T02:07:05.478Z,12.25
2018-11-11T02:11:48.462Z,12.16
2018-11-11T02:16:31.291Z,12.22
2018-11-11T02:21:14.287Z,12.12
2018-11-11T02:25:57.125Z,12.14
2018-11-11T02:30:40.986Z,12.12
2018-11-11T02:35:23.819Z,12.05
2018-11-11T02:40:09.512Z,12.00
2018-11-11T02:44:52.358Z,11.93
2018-11-11T02:49:35.231Z,11.90
2018-11-11T02:54:18.181Z,11.84
2018-11-11T02:59:01.042Z,11.81
2018-11-11T03:03:44.026Z,11.72
2018-11-11T03:08:26.925Z,11.65
2018-11-11T03:13:10.781Z,11.70
2018-11-11T03:17:53.623Z,11.81
2018-11-11T03:22:36.566Z,11.81
2018-11-11T03:27:19.423Z,11.73
2018-11-11T03:32:02.428Z,11.80
2018-11-11T03:36:45.276Z,11.66
2018-11-11T03:41:29.386Z,11.73
2018-11-11T03:46:12.321Z,11.66
2018-11-11T03:50:55.413Z,11.61
2018-11-11T03:55:38.302Z,11.56
2018-11-11T04:00:22.176Z,11.48
2018-11-11T04:05:05.753Z,11.51
2018-11-11T04:09:49.766Z,11.52
2018-11-11T04:14:32.644Z,11.57
2018-11-11T04:19:15.520Z,11.38
2018-11-11T04:23:58.371Z,11.39
2018-11-11T04:28:41.312Z,11.39
2018-11-11T04:33:24.465Z,11.38
2018-11-11T04:38:07.370Z,11.45
2018-11-11T04:42:50.455Z,11.31
2018-11-11T04:47:33.323Z,11.47
2018-11-11T04:52:16.239Z,11.40
2018-11-11T04:56:59.123Z,11.48
2018-11-11T05:01:42.321Z,11.53
2018-11-11T05:06:25.100Z,11.53
2018-11-11T05:11:09.012Z,11.52
2018-11-11T05:15:51.883Z,11.59
2018-11-11T05:20:34.766Z,11.56
2018-11-11T05:25:17.647Z,11.47
2018-11-11T05:30:01.596Z,11.58
2018-11-11T05:34:44.505Z,11.73
2018-11-11T05:39:29.420Z,11.66
2018-11-11T05:44:12.338Z,11.72
2018-11-11T05:48:56.203Z,11.66
2018-11-11T05:53:40.122Z,11.92
2018-11-11T05:58:23.022Z,11.94
2018-11-11T06:03:06.119Z,12.15
2018-11-11T06:07:49.129Z,12.17
2018-11-11T06:12:32.172Z,12.36
2018-11-11T06:17:16.111Z,12.13
2018-11-11T06:21:59.206Z,12.35
2018-11-11T06:26:42.104Z,12.43
2018-11-11T06:31:25.199Z,12.70
2018-11-11T06:36:08.078Z,12.83
2018-11-11T06:40:51.971Z,13.08
2018-11-11T06:45:35.722Z,13.05
2018-11-11T06:50:19.803Z,12.97
2018-11-11T06:55:02.757Z,12.59
2018-11-11T06:59:46.865Z,12.64
2018-11-11T07:04:29.727Z,13.24
2018-11-11T07:09:12.664Z,13.61
2018-11-11T07:13:55.615Z,13.46
2018-11-11T07:18:38.454Z,12.96
2018-11-11T07:23:21.544Z,13.76
2018-11-11T07:28:05.003Z,13.92
2018-11-11T07:32:48.034Z,14.12
2018-11-11T07:37:30.891Z,14.05
2018-11-11T07:42:13.817Z,13.77
2018-11-11T07:46:56.679Z,14.34
2018-11-11T07:51:40.674Z,14.77
2018-11-11T07:56:23.522Z,14.01
2018-11-11T08:01:06.634Z,14.18
2018-11-11T08:05:50.406Z,14.81
2018-11-11T08:10:44.480Z,14.45
2018-11-11T08:15:27.357Z,14.02
2018-11-11T08:20:10.455Z,14.07
2018-11-11T08:24:53.818Z,14.79
2018-11-11T08:29:36.778Z,14.86
2018-11-11T08:34:19.690Z,15.41
2018-11-11T08:39:06.232Z,16.04
2018-11-11T08:43:49.100Z,16.15
2018-11-11T08:48:32.022Z,16.18
2018-11-11T08:53:15.008Z,15.85
2018-11-11T08:57:58.030Z,15.92
2018-11-11T09:02:41.479Z,16.32
2018-11-11T09:07:24.425Z,16.77
2018-11-11T09:12:07.555Z,16.48
2018-11-11T09:16:51.263Z,16.48
2018-11-11T09:21:35.456Z,16.99
2018-11-11T09:26:19.467Z,17.32
2018-11-11T09:31:03.874Z,17.20
2018-11-11T09:35:46.775Z,17.49
2018-11-11T09:40:31.471Z,16.66
2018-11-11T09:45:15.336Z,17.08
2018-11-11T09:49:58.518Z,17.24
2018-11-11T09:54:41.453Z,17.95
2018-11-11T09:59:25.383Z,17.91
2018-11-11T10:06:17.271Z,18.15
2018-11-11T10:11:05.807Z,17.94
2018-11-11T10:15:54.957Z,18.16
2018-11-11T10:20:43.383Z,17.68
2018-11-11T10:25:35.443Z,17.74
2018-11-11T10:30:27.527Z,17.95
2018-11-11T10:35:15.991Z,18.32
2018-11-11T10:40:09.234Z,18.44
2018-11-11T10:44:56.650Z,18.27
2018-11-11T10:49:42.612Z,18.18
2018-11-11T10:54:25.880Z,17.46
2018-11-11T10:59:09.982Z,18.46
2018-11-11T11:03:52.898Z,17.77
2018-11-11T11:08:36.055Z,18.36
2018-11-11T11:13:19.047Z,18.29
2018-11-11T11:18:01.891Z,18.35
2018-11-11T11:22:45.879Z,18.10
2018-11-11T11:27:28.746Z,18.28
2018-11-11T11:32:15.325Z,18.96
2018-11-11T11:36:58.211Z,18.80
2018-11-11T11:41:41.088Z,19.14
2018-11-11T11:46:23.955Z,18.97
2018-11-11T11:51:10.542Z,19.08
2018-11-11T11:55:53.399Z,19.26
2018-11-11T12:00:36.363Z,19.32
2018-11-11T12:05:19.263Z,19.12
2018-11-11T12:10:03.802Z,18.90
2018-11-11T12:14:46.689Z,18.92
2018-11-11T12:19:33.293Z,18.77
2018-11-11T12:24:16.463Z,18.61
2018-11-11T12:29:02.939Z,18.45
2018-11-11T12:33:46.827Z,18.49
2018-11-11T12:38:30.922Z,18.36
2018-11-11T12:43:13.902Z,18.07
2018-11-11T12:47:56.853Z,18.12
2018-11-11T12:52:40.863Z,18.05
2018-11-11T12:57:23.894Z,17.80
2018-11-11T13:02:07.740Z,17.81
2018-11-11T13:06:50.635Z,17.76
2018-11-11T13:11:33.700Z,17.53
2018-11-11T13:16:16.578Z,17.72
2018-11-11T13:21:04.432Z,17.22
2018-11-11T13:25:47.322Z,17.45
2018-11-11T13:30:30.307Z,17.21
2018-11-11T13:35:15.142Z,17.45
2018-11-11T13:39:59.179Z,17.08
2018-11-11T13:44:42.136Z,17.25
2018-11-11T13:49:25.257Z,16.94
2018-11-11T13:54:09.273Z,16.98
2018-11-11T13:58:52.267Z,16.92
2018-11-11T14:03:35.174Z,16.82
2018-11-11T14:08:20.380Z,17.01
2018-11-11T14:13:03.239Z,16.75
2018-11-11T14:17:46.726Z,16.41
2018-11-11T14:22:29.611Z,16.41
2018-11-11T14:27:12.464Z,16.80
2018-11-11T14:31:56.903Z,16.52
2018-11-11T14:36:39.827Z,16.60
2018-11-11T14:41:28.768Z,16.43
2018-11-11T14:46:12.383Z,16.42
2018-11-11T14:50:55.239Z,16.41
2018-11-11T14:55:38.128Z,16.69
2018-11-11T15:00:26.498Z,16.39
2018-11-11T15:05:11.954Z,16.25
2018-11-11T15:09:55.756Z,16.18
2018-11-11T15:14:38.851Z,15.51
2018-11-11T15:19:22.092Z,15.51
2018-11-11T15:24:05.282Z,15.64
2018-11-11T15:28:48.245Z,15.44
2018-11-11T15:33:31.158Z,15.10
2018-11-11T15:38:14.284Z,15.15
2018-11-11T15:42:57.353Z,15.17
2018-11-11T15:47:40.278Z,15.37
2018-11-11T15:52:23.642Z,15.67
2018-11-11T15:57:22.399Z,15.72
2018-11-11T16:02:09.227Z,15.54
2018-11-11T16:06:52.936Z,15.58
2018-11-11T16:11:38.958Z,15.69
2018-11-11T16:16:21.895Z,15.42
2018-11-11T16:21:05.152Z,15.25
2018-11-11T16:25:48.218Z,15.22
2018-11-11T16:30:33.849Z,15.32
2018-11-11T16:35:17.967Z,14.79
2018-11-11T16:40:01.091Z,15.16
2018-11-11T16:44:44.096Z,15.17
2018-11-11T16:49:31.674Z,15.25
2018-11-11T16:54:14.944Z,15.33
2018-11-11T16:58:59.077Z,15.30
2018-11-11T17:03:50.961Z,15.05
2018-11-11T17:13:53.098Z,15.13
2018-11-11T17:18:48.465Z,14.85
2018-11-11T17:23:34.642Z,15.15
2018-11-11T17:28:32.636Z,15.05
2018-11-11T17:33:19.327Z,15.38
2018-11-11T17:43:23.871Z,15.26
2018-11-11T17:48:08.123Z,15.17
2018-11-11T18:00:10.688Z,14.35
2018-11-11T18:04:55.237Z,14.23
2018-11-11T18:09:39.123Z,14.35
2018-11-11T18:14:48.058Z,14.28
2018-11-11T18:19:46.744Z,14.41
2018-11-11T18:24:43.290Z,14.34
2018-11-11T18:29:33.766Z,14.15
2018-11-11T18:34:18.131Z,14.04
2018-11-11T18:39:18.671Z,14.08
2018-11-11T19:21:15.546Z,13.86
2018-11-11T20:08:37.988Z,14.68
2018-11-11T20:13:23.836Z,14.57
2018-11-11T20:18:28.079Z,14.55
2018-11-11T20:53:43.409Z,14.49
2018-11-11T21:00:07.638Z,14.56
2018-11-11T21:04:50.717Z,14.57
2018-11-11T21:09:33.703Z,14.37
2018-11-11T21:14:16.659Z,14.41
2018-11-11T21:19:00.029Z,14.39
2018-11-11T21:23:43.091Z,14.55
2018-11-11T21:28:26.234Z,14.62
2018-11-11T21:33:09.207Z,14.36
2018-11-11T21:37:53.442Z,14.40
2018-11-11T21:42:38.315Z,14.62
2018-11-11T21:47:21.350Z,14.54
2018-11-11T21:52:04.377Z,14.43
2018-11-11T21:56:47.292Z,14.20
2018-11-11T22:01:30.223Z,14.40
2018-11-11T22:06:13.152Z,14.28
2018-11-11T22:10:56.481Z,13.85
2018-11-11T22:15:39.755Z,13.94
2018-11-11T22:20:22.763Z,13.83
2018-11-11T22:25:09.854Z,13.73
2018-11-11T22:29:53.985Z,13.45
